createdAt,value
2022-09-25T00:00:51.868Z,26.90
2022-09-25T00:03:19.554Z,25.45
2022-09-25T00:05:47.128Z,30.08
2022-09-25T00:08:15.034Z,25.30
2022-09-25T00:10:42.783Z,25.40
2022-09-25T00:13:10.235Z,25.90
2022-09-25T00:15:37.552Z,26.33
2022-09-25T00:18:04.641Z,26.63
2022-09-25T00:20:31.697Z,27.73
2022-09-25T00:23:02.447Z,32.95
2022-09-25T00:25:29.567Z,37.40
2022-09-25T00:27:56.683Z,35.33
2022-09-25T00:30:23.927Z,33.92
2022-09-25T00:32:51.082Z,33.22
2022-09-25T00:35:18.208Z,34.97
2022-09-25T00:37:45.304Z,34.10
2022-09-25T00:40:12.492Z,34.25
2022-09-25T00:42:40.180Z,34.75
2022-09-25T00:45:08.259Z,34.88
2022-09-25T00:47:54.476Z,33.22
2022-09-25T00:50:30.377Z,35.90
2022-09-25T00:53:03.835Z,37.78
2022-09-25T00:55:32.173Z,35.58
2022-09-25T00:58:00.836Z,39.22
2022-09-25T01:00:28.143Z,42.40
2022-09-25T01:02:56.133Z,48.80
2022-09-25T01:05:25.314Z,35.75
2022-09-25T01:07:53.238Z,34.60
2022-09-25T01:10:21.606Z,38.60
2022-09-25T01:12:49.874Z,50.95
2022-09-25T01:15:18.137Z,44.83
2022-09-25T01:18:01.740Z,38.30
2022-09-25T01:20:28.776Z,55.25
2022-09-25T01:22:55.811Z,47.05
2022-09-25T01:25:44.949Z,40.67
2022-09-25T01:28:14.787Z,43.20
2022-09-25T01:30:45.273Z,40.38
2022-09-25T01:33:18.378Z,41.58
2022-09-25T01:35:45.403Z,37.20
2022-09-25T01:38:19.152Z,38.83
2022-09-25T01:40:53.676Z,36.78
2022-09-25T01:43:23.572Z,37.33
2022-09-25T01:46:02.059Z,38.20
2022-09-25T01:48:31.562Z,35.58
2022-09-25T01:50:58.619Z,36.60
2022-09-25T01:53:47.930Z,36.38
2022-09-25T01:56:19.962Z,37.15
2022-09-25T01:58:53.869Z,34.33
2022-09-25T02:01:27.071Z,37.15
2022-09-25T02:04:00.187Z,35.42
2022-09-25T02:06:27.524Z,36.88
2022-09-25T02:09:07.298Z,34.60
2022-09-25T02:11:41.886Z,36.65
2022-09-25T02:14:15.593Z,32.78
2022-09-25T02:16:43.958Z,31.23
2022-09-25T02:19:35.302Z,30.40
2022-09-25T02:22:23.430Z,29.95
2022-09-25T02:24:58.445Z,29.70
2022-09-25T02:27:27.527Z,30.17
2022-09-25T02:29:55.608Z,26.40
2022-09-25T02:32:26.071Z,25.90
2022-09-25T02:34:53.539Z,30.25
2022-09-25T02:37:20.590Z,40.85
2022-09-25T02:39:52.725Z,31.30
2022-09-25T02:42:32.586Z,30.30
2022-09-25T02:45:17.745Z,26.35
2022-09-25T02:47:47.608Z,28.40
2022-09-25T02:50:22.911Z,33.75
2022-09-25T02:53:08.886Z,29.92
2022-09-25T02:55:45.576Z,27.23
2022-09-25T02:58:16.055Z,25.20
2022-09-25T03:00:44.802Z,26.77
2022-09-25T03:03:18.827Z,25.23
2022-09-25T03:05:46.912Z,25.67
2022-09-25T03:08:32.840Z,26.65
2022-09-25T03:11:00.426Z,24.08
2022-09-25T03:13:34.119Z,22.55
2022-09-25T03:16:03.505Z,24.50
2022-09-25T03:18:31.417Z,24.60
2022-09-25T03:20:59.171Z,23.85
2022-09-25T03:23:26.746Z,22.48
2022-09-25T03:25:54.695Z,21.95
2022-09-25T03:28:22.266Z,19.58
2022-09-25T03:31:05.906Z,18.85
2022-09-25T03:33:37.469Z,19.83
2022-09-25T03:36:10.886Z,17.80
2022-09-25T03:38:38.669Z,21.98
2022-09-25T03:41:09.448Z,18.45
2022-09-25T03:43:37.317Z,18.95
2022-09-25T03:46:08.743Z,17.88
2022-09-25T03:48:36.379Z,18.88
2022-09-25T03:51:03.732Z,19.13
2022-09-25T03:53:34.191Z,19.48
2022-09-25T03:56:02.178Z,21.52
2022-09-25T03:58:29.367Z,20.92
2022-09-25T04:00:57.317Z,18.23
2022-09-25T04:03:27.995Z,16.85
2022-09-25T04:05:56.080Z,22.23
2022-09-25T04:08:25.392Z,25.48
2022-09-25T04:10:52.484Z,19.05
2022-09-25T04:13:19.804Z,28.85
2022-09-25T04:15:46.932Z,21.15
2022-09-25T04:18:14.640Z,18.48
2022-09-25T04:20:41.747Z,18.90
2022-09-25T04:23:08.877Z,17.90
2022-09-25T04:25:36.036Z,22.35
2022-09-25T04:28:03.093Z,26.35
2022-09-25T04:30:30.506Z,18.45
2022-09-25T04:33:16.131Z,20.45
2022-09-25T04:35:43.239Z,19.92
2022-09-25T04:38:10.387Z,18.67
2022-09-25T04:40:37.745Z,20.35
2022-09-25T04:43:05.799Z,21.92
2022-09-25T04:45:34.523Z,21.60
2022-09-25T04:48:02.056Z,22.58
2022-09-25T04:50:29.610Z,23.48
2022-09-25T04:53:00.176Z,21.15
2022-09-25T04:55:27.714Z,22.65
2022-09-25T04:57:58.674Z,21.85
2022-09-25T05:00:28.083Z,22.73
2022-09-25T05:02:55.287Z,22.85
2022-09-25T05:05:22.660Z,23.73
2022-09-25T05:07:54.198Z,25.90
2022-09-25T05:10:21.903Z,23.75
2022-09-25T05:12:50.310Z,21.45
2022-09-25T05:15:17.903Z,23.73
2022-09-25T05:17:45.007Z,25.90
2022-09-25T05:20:12.073Z,27.25
2022-09-25T05:22:39.166Z,24.63
2022-09-25T05:25:06.464Z,22.67
2022-09-25T05:27:34.577Z,23.30
2022-09-25T05:30:02.333Z,26.98
2022-09-25T05:32:30.978Z,27.27
2022-09-25T05:34:58.070Z,24.58
2022-09-25T05:37:25.286Z,25.80
2022-09-25T05:39:52.510Z,23.35
2022-09-25T05:42:19.609Z,23.83
2022-09-25T05:44:46.992Z,25.20
2022-09-25T05:47:14.064Z,22.45
2022-09-25T05:49:41.174Z,22.30
2022-09-25T05:52:08.268Z,21.15
2022-09-25T05:54:35.394Z,20.67
2022-09-25T05:57:02.455Z,20.70
2022-09-25T05:59:29.590Z,20.55
2022-09-25T06:01:56.674Z,21.38
2022-09-25T06:04:23.818Z,22.80
2022-09-25T06:06:51.004Z,23.55
2022-09-25T06:09:18.087Z,23.35
2022-09-25T06:11:48.519Z,24.27
2022-09-25T06:14:16.588Z,23.35
2022-09-25T06:16:44.282Z,25.30
2022-09-25T06:19:11.360Z,23.58
2022-09-25T06:21:38.448Z,24.08
2022-09-25T06:24:05.593Z,22.52
2022-09-25T06:26:34.085Z,22.77
2022-09-25T06:29:03.354Z,24.25
2022-09-25T06:31:31.113Z,23.83
2022-09-25T06:33:58.320Z,24.63
2022-09-25T06:36:27.331Z,27.55
2022-09-25T06:38:55.719Z,26.98
2022-09-25T06:41:23.288Z,24.38
2022-09-25T06:43:50.815Z,25.25
2022-09-25T06:46:20.966Z,26.98
2022-09-25T06:48:54.051Z,24.20
2022-09-25T06:51:21.650Z,24.90
2022-09-25T06:53:48.786Z,25.48
2022-09-25T06:56:15.894Z,25.38
2022-09-25T06:58:42.971Z,24.75
2022-09-25T07:01:11.731Z,24.73
2022-09-25T07:03:45.034Z,24.02
2022-09-25T07:06:13.633Z,24.13
2022-09-25T07:08:40.874Z,24.42
2022-09-25T07:11:08.067Z,24.67
2022-09-25T07:13:35.977Z,24.65
2022-09-25T07:16:04.374Z,24.48
2022-09-25T07:18:31.870Z,24.70
2022-09-25T07:21:03.075Z,23.33
2022-09-25T07:23:31.271Z,25.20
2022-09-25T07:26:04.110Z,24.17
2022-09-25T07:28:31.228Z,24.00
2022-09-25T07:30:58.691Z,24.58
2022-09-25T07:33:25.880Z,22.25
2022-09-25T07:35:52.981Z,22.88
2022-09-25T07:38:20.045Z,20.10
2022-09-25T07:40:47.177Z,22.85
2022-09-25T07:43:14.338Z,22.13
2022-09-25T07:45:41.884Z,20.17
2022-09-25T07:48:09.653Z,19.10
2022-09-25T07:50:36.722Z,17.65
2022-09-25T07:53:03.906Z,16.35
2022-09-25T07:55:30.986Z,15.52
2022-09-25T07:57:58.444Z,15.85
2022-09-25T08:00:25.767Z,13.75
2022-09-25T08:02:57.333Z,14.38
2022-09-25T08:05:24.531Z,14.80
2022-09-25T08:07:51.613Z,14.07
2022-09-25T08:10:18.752Z,13.43
2022-09-25T08:12:45.933Z,12.55
2022-09-25T08:15:14.703Z,12.00
2022-09-25T08:17:42.729Z,10.88
2022-09-25T08:20:10.147Z,11.27
2022-09-25T08:22:37.363Z,11.40
2022-09-25T08:25:04.586Z,11.77
2022-09-25T08:27:32.055Z,11.40
2022-09-25T08:29:59.215Z,11.20
2022-09-25T08:32:26.322Z,10.15
2022-09-25T08:34:55.183Z,10.55
2022-09-25T08:37:22.284Z,9.23
2022-09-25T08:39:49.350Z,9.68
2022-09-25T08:42:19.523Z,9.55
2022-09-25T08:45:20.983Z,9.88
2022-09-25T08:48:08.148Z,9.88
2022-09-25T08:50:35.855Z,10.63
2022-09-25T08:53:07.770Z,10.77
2022-09-25T08:55:54.909Z,10.40
2022-09-25T08:58:24.815Z,10.88
2022-09-25T09:00:56.563Z,9.52
2022-09-25T09:03:25.636Z,9.20
2022-09-25T09:05:56.361Z,8.90
2022-09-25T09:08:25.761Z,8.77
2022-09-25T09:10:55.491Z,9.65
2022-09-25T09:13:25.397Z,9.98
2022-09-25T09:16:02.502Z,9.43
2022-09-25T09:18:31.115Z,10.93
2022-09-25T09:20:59.359Z,11.10
2022-09-25T09:23:40.535Z,11.73
2022-09-25T09:26:16.359Z,10.80
2022-09-25T09:28:43.428Z,11.77
2022-09-25T09:31:13.618Z,12.18
2022-09-25T09:33:49.018Z,10.70
2022-09-25T09:36:19.207Z,9.98
2022-09-25T09:38:49.159Z,10.18
2022-09-25T09:41:28.830Z,10.38
2022-09-25T09:44:04.798Z,10.85
2022-09-25T09:46:43.785Z,10.93
2022-09-25T09:49:14.631Z,11.85
2022-09-25T09:51:54.930Z,10.77
2022-09-25T09:54:22.031Z,10.27
2022-09-25T09:56:50.682Z,10.00
2022-09-25T09:59:20.060Z,10.77
2022-09-25T10:01:59.852Z,9.85
2022-09-25T10:04:30.684Z,10.75
2022-09-25T10:07:04.583Z,10.77
2022-09-25T10:09:31.684Z,10.90
2022-09-25T10:12:02.142Z,10.93
2022-09-25T10:14:32.920Z,11.55
2022-09-25T10:17:01.116Z,11.35
2022-09-25T10:19:29.822Z,12.35
2022-09-25T10:21:56.915Z,11.88
2022-09-25T10:24:42.878Z,11.82
2022-09-25T10:27:25.533Z,12.32
2022-09-25T10:30:03.122Z,12.60
2022-09-25T10:32:31.021Z,12.95
2022-09-25T10:34:58.109Z,12.88
2022-09-25T10:37:29.116Z,13.38
2022-09-25T10:40:07.425Z,14.02
2022-09-25T10:42:41.477Z,13.15
2022-09-25T10:45:23.583Z,12.90
2022-09-25T10:48:10.124Z,13.17
2022-09-25T10:50:37.544Z,12.80
2022-09-25T10:53:05.377Z,11.95
2022-09-25T10:55:35.071Z,13.48
2022-09-25T10:58:11.102Z,14.55
2022-09-25T11:00:53.963Z,14.93
2022-09-25T11:03:47.129Z,14.65
2022-09-25T11:06:23.724Z,13.95
2022-09-25T11:08:55.623Z,15.13
2022-09-25T11:11:26.905Z,13.67
2022-09-25T11:14:03.291Z,13.85
2022-09-25T11:16:47.516Z,13.45
2022-09-25T11:19:14.706Z,12.85
2022-09-25T11:21:51.187Z,12.77
2022-09-25T11:24:18.509Z,13.70
2022-09-25T11:27:11.987Z,12.88
2022-09-25T11:29:39.022Z,12.63
2022-09-25T11:32:10.737Z,12.32
2022-09-25T11:37:11.318Z,12.25
2022-09-25T11:40:06.062Z,12.90
2022-09-25T11:42:51.880Z,12.38
2022-09-25T11:45:36.382Z,12.70
2022-09-25T11:48:06.904Z,13.88
2022-09-25T11:50:40.894Z,13.25
2022-09-25T11:53:19.294Z,14.02
2022-09-25T11:55:49.436Z,12.60
2022-09-25T11:58:19.383Z,12.68
2022-09-25T12:00:56.837Z,13.43
2022-09-25T12:03:32.138Z,13.65
2022-09-25T12:06:16.053Z,13.95
2022-09-25T12:09:01.700Z,13.90
2022-09-25T12:11:38.032Z,13.77
2022-09-25T12:14:15.695Z,13.60
2022-09-25T12:17:01.011Z,13.80
2022-09-25T12:19:37.315Z,13.00
2022-09-25T12:22:09.035Z,13.30
2022-09-25T12:24:40.122Z,13.68
2022-09-25T12:27:19.326Z,12.85
2022-09-25T12:30:11.729Z,11.88
2022-09-25T12:32:55.473Z,14.03
2022-09-25T12:35:28.707Z,13.02
2022-09-25T12:38:02.767Z,13.48
2022-09-25T12:40:33.743Z,13.15
2022-09-25T12:43:00.842Z,12.55
2022-09-25T12:45:27.898Z,14.02
2022-09-25T12:48:15.328Z,12.10
2022-09-25T12:50:48.402Z,11.95
2022-09-25T12:53:22.795Z,10.40
2022-09-25T12:56:16.218Z,11.63
2022-09-25T12:58:43.396Z,12.02
2022-09-25T13:01:23.102Z,12.20
2022-09-25T13:04:08.946Z,13.30
2022-09-25T13:06:40.768Z,12.45
2022-09-25T13:09:34.166Z,12.98
2022-09-25T13:12:05.029Z,12.40
2022-09-25T13:14:42.719Z,13.40
2022-09-25T13:17:13.652Z,12.80
2022-09-25T13:19:40.722Z,12.68
2022-09-25T13:22:07.922Z,13.25
2022-09-25T13:24:45.650Z,12.20
2022-09-25T13:27:18.753Z,10.93
2022-09-25T13:29:52.386Z,11.60
2022-09-25T13:32:22.988Z,10.95
2022-09-25T13:34:52.637Z,11.43
2022-09-25T13:37:24.499Z,11.90
2022-09-25T13:40:10.592Z,11.50
2022-09-25T13:42:46.233Z,10.55
2022-09-25T13:45:22.502Z,11.02
2022-09-25T13:47:54.057Z,9.90
2022-09-25T13:50:25.959Z,10.10
2022-09-25T13:53:14.754Z,9.63
2022-09-25T13:55:42.957Z,9.93
2022-09-25T13:58:36.584Z,10.82
2022-09-25T14:01:11.453Z,10.55
2022-09-25T14:03:49.607Z,11.40
2022-09-25T14:06:39.256Z,11.18
2022-09-25T14:09:09.350Z,10.98
2022-09-25T14:11:37.969Z,10.82
2022-09-25T14:14:07.698Z,10.73
2022-09-25T14:16:37.118Z,9.38
2022-09-25T14:19:05.478Z,8.38
2022-09-25T14:21:35.698Z,6.65
2022-09-25T14:24:15.896Z,4.97
2022-09-25T14:26:46.719Z,4.00
2022-09-25T14:29:17.878Z,3.58
2022-09-25T14:31:56.772Z,3.65
2022-09-25T14:34:33.807Z,3.75
2022-09-25T14:37:19.528Z,3.38
2022-09-25T14:40:02.464Z,3.08
2022-09-25T14:44:57.700Z,3.08
2022-09-25T14:47:27.205Z,3.15
2022-09-25T14:49:54.444Z,3.65
2022-09-25T14:52:24.143Z,3.35
2022-09-25T14:54:52.219Z,3.33
2022-09-25T14:57:25.451Z,3.60
2022-09-25T14:59:55.062Z,3.60
2022-09-25T15:02:31.635Z,3.35
2022-09-25T15:04:59.517Z,3.63
2022-09-25T15:07:27.916Z,4.00
2022-09-25T15:09:56.029Z,3.72
2022-09-25T15:12:30.734Z,4.18
2022-09-25T15:15:07.978Z,4.70
2022-09-25T15:17:38.170Z,4.70
2022-09-25T15:20:08.126Z,5.03
2022-09-25T15:22:38.604Z,5.00
2022-09-25T15:25:06.895Z,5.47
2022-09-25T15:27:35.132Z,6.20
2022-09-25T15:30:02.939Z,6.80
2022-09-25T15:32:30.009Z,6.78
2022-09-25T15:35:27.183Z,6.60
2022-09-25T15:38:02.919Z,7.15
2022-09-25T15:40:30.366Z,6.75
2022-09-25T15:42:57.875Z,7.22
2022-09-25T15:45:42.902Z,10.75
2022-09-25T15:48:20.758Z,8.63
2022-09-25T15:50:48.628Z,9.00
2022-09-25T15:53:19.642Z,7.13
2022-09-25T15:55:46.696Z,7.85
2022-09-25T15:58:15.900Z,7.25
2022-09-25T16:01:14.260Z,7.43
2022-09-25T16:04:05.050Z,7.05
2022-09-25T16:06:38.029Z,7.07
2022-09-25T16:09:18.400Z,7.40
2022-09-25T16:11:45.501Z,7.60
2022-09-25T16:14:21.972Z,7.28
2022-09-25T16:16:50.207Z,8.10
2022-09-25T16:19:35.495Z,8.40
2022-09-25T16:22:14.987Z,7.55
2022-09-25T16:24:42.982Z,11.43
2022-09-25T16:27:20.355Z,10.02
2022-09-25T16:29:47.591Z,9.80
2022-09-25T16:32:17.426Z,10.60
2022-09-25T16:34:51.124Z,10.43
2022-09-25T16:37:22.562Z,10.05
2022-09-25T16:40:08.979Z,10.48
2022-09-25T16:42:42.316Z,9.77
2022-09-25T16:45:18.277Z,10.93
2022-09-25T16:47:49.628Z,12.15
2022-09-25T16:50:17.471Z,12.43
2022-09-25T16:52:45.293Z,8.15
2022-09-25T16:55:23.116Z,9.13
2022-09-25T16:57:51.220Z,9.55
2022-09-25T17:00:23.528Z,9.07
2022-09-25T17:02:51.052Z,8.38
2022-09-25T17:05:23.286Z,13.05
2022-09-25T17:07:51.824Z,12.38
2022-09-25T17:10:20.499Z,8.77
2022-09-25T17:12:53.534Z,13.75
2022-09-25T17:15:25.635Z,13.90
2022-09-25T17:17:56.297Z,13.07
2022-09-25T17:20:24.449Z,11.32
2022-09-25T17:22:52.539Z,11.80
2022-09-25T17:25:23.618Z,9.50
2022-09-25T17:27:50.872Z,9.13
2022-09-25T17:30:18.065Z,10.80
2022-09-25T17:32:45.211Z,8.98
2022-09-25T17:35:25.725Z,7.22
2022-09-25T17:37:52.825Z,7.40
2022-09-25T17:40:20.258Z,7.53
2022-09-25T17:42:47.362Z,6.95
2022-09-25T17:45:34.872Z,8.63
2022-09-25T17:48:02.395Z,8.60
2022-09-25T17:50:31.374Z,7.20
2022-09-25T17:52:59.014Z,6.60
2022-09-25T17:55:26.157Z,8.10
2022-09-25T17:57:53.222Z,7.72
2022-09-25T18:00:20.477Z,7.43
2022-09-25T18:02:47.677Z,9.32
2022-09-25T18:05:16.362Z,13.15
2022-09-25T18:07:43.605Z,16.98
2022-09-25T18:10:11.579Z,15.23
2022-09-25T18:12:38.683Z,13.35
2022-09-25T18:15:06.003Z,14.73
2022-09-25T18:17:33.255Z,11.55
2022-09-25T18:20:19.299Z,10.93
2022-09-25T18:22:47.051Z,10.45
2022-09-25T18:25:15.451Z,11.23
2022-09-25T18:27:42.842Z,13.13
2022-09-25T18:30:12.736Z,13.88
2022-09-25T18:32:39.888Z,12.43
2022-09-25T18:35:07.585Z,10.48
2022-09-25T18:37:34.808Z,11.05
2022-09-25T18:40:01.966Z,11.02
2022-09-25T18:42:29.061Z,14.18
2022-09-25T18:44:56.466Z,14.07
2022-09-25T18:47:23.585Z,11.27
2022-09-25T18:49:50.866Z,12.77
2022-09-25T18:52:17.987Z,24.98
2022-09-25T18:54:45.198Z,13.57
2022-09-25T18:57:12.695Z,11.70
2022-09-25T19:00:14.155Z,12.05
2022-09-25T19:02:43.890Z,11.90
2022-09-25T19:05:11.555Z,13.32
2022-09-25T19:07:38.953Z,12.18
2022-09-25T19:10:09.444Z,14.13
2022-09-25T19:12:36.577Z,11.48
2022-09-25T19:15:04.673Z,13.88
2022-09-25T19:17:32.133Z,11.45
2022-09-25T19:19:59.225Z,11.65
2022-09-25T19:22:26.282Z,12.40
2022-09-25T19:24:54.479Z,11.32
2022-09-25T19:27:22.260Z,10.65
2022-09-25T19:29:49.779Z,10.50
2022-09-25T19:32:17.970Z,10.15
2022-09-25T19:34:45.575Z,11.35
2022-09-25T19:37:12.956Z,9.82
2022-09-25T19:39:59.889Z,9.85
2022-09-25T19:42:33.440Z,10.38
2022-09-25T19:45:01.541Z,13.27
2022-09-25T19:47:28.673Z,15.07
2022-09-25T19:49:55.746Z,11.45
2022-09-25T19:52:24.275Z,11.68
2022-09-25T19:54:51.576Z,10.20
2022-09-25T19:57:18.724Z,11.38
2022-09-25T19:59:45.857Z,10.38
2022-09-25T20:02:13.699Z,10.95
2022-09-25T20:04:41.109Z,11.13
2022-09-25T20:07:08.168Z,11.98
2022-09-25T20:09:39.763Z,13.60
2022-09-25T20:12:07.201Z,12.17
2022-09-25T20:14:34.320Z,13.75
2022-09-25T20:17:04.326Z,11.27
2022-09-25T20:19:33.753Z,12.05
2022-09-25T20:22:00.896Z,11.90
2022-09-25T20:24:27.951Z,12.10
2022-09-25T20:26:55.590Z,12.85
2022-09-25T20:29:22.711Z,12.52
2022-09-25T20:31:49.834Z,11.75
2022-09-25T20:34:18.584Z,13.20
2022-09-25T20:36:47.032Z,12.98
2022-09-25T20:39:19.768Z,12.50
2022-09-25T20:41:47.073Z,12.15
2022-09-25T20:44:14.273Z,13.75
2022-09-25T20:46:42.017Z,13.45
2022-09-25T20:49:10.654Z,13.18
2022-09-25T20:51:37.978Z,14.40
2022-09-25T20:54:07.360Z,14.50
2022-09-25T20:56:34.951Z,14.80
2022-09-25T20:59:02.812Z,14.30
2022-09-25T21:01:31.881Z,13.93
2022-09-25T21:04:00.519Z,13.77
2022-09-25T21:06:29.133Z,14.38
2022-09-25T21:08:57.547Z,14.30
2022-09-25T21:11:25.359Z,14.88
2022-09-25T21:13:53.620Z,15.80
2022-09-25T21:16:22.416Z,14.25
2022-09-25T21:18:59.533Z,16.70
2022-09-25T21:21:27.771Z,16.83
2022-09-25T21:23:55.671Z,15.75
2022-09-25T21:26:23.658Z,15.40
2022-09-25T21:28:51.696Z,16.88
2022-09-25T21:31:20.298Z,17.58
2022-09-25T21:33:47.854Z,17.13
2022-09-25T21:36:16.156Z,16.65
2022-09-25T21:38:43.798Z,17.80
2022-09-25T21:41:14.920Z,16.23
2022-09-25T21:43:42.504Z,16.13
2022-09-25T21:46:12.862Z,15.70
2022-09-25T21:48:40.964Z,15.32
2022-09-25T21:51:08.747Z,16.00
2022-09-25T21:53:35.924Z,15.35
2022-09-25T21:56:03.936Z,16.27
2022-09-25T21:58:31.228Z,15.10
2022-09-25T22:01:07.649Z,14.20
2022-09-25T22:03:35.427Z,14.60
2022-09-25T22:06:03.239Z,14.77
2022-09-25T22:08:31.153Z,14.25
2022-09-25T22:10:59.166Z,13.02
2022-09-25T22:13:27.326Z,13.32
2022-09-25T22:16:20.787Z,13.20
2022-09-25T22:18:49.653Z,12.60
2022-09-25T22:21:18.758Z,14.50
2022-09-25T22:23:45.913Z,13.90
2022-09-25T22:26:13.456Z,14.27
2022-09-25T22:28:40.663Z,12.43
2022-09-25T22:31:09.675Z,12.90
2022-09-25T22:33:37.166Z,15.20
2022-09-25T22:36:05.841Z,13.65
2022-09-25T22:38:33.295Z,15.10
2022-09-25T22:41:04.995Z,13.50
2022-09-25T22:43:32.446Z,14.63
2022-09-25T22:45:59.991Z,14.35
2022-09-25T22:48:27.126Z,14.68
2022-09-25T22:51:05.041Z,14.85
2022-09-25T22:53:33.231Z,14.13
2022-09-25T22:56:19.939Z,13.77
2022-09-25T22:58:49.680Z,13.65
2022-09-25T23:01:21.438Z,14.00
2022-09-25T23:03:48.734Z,14.55
2022-09-25T23:06:15.815Z,14.15
2022-09-25T23:08:42.931Z,14.60
2022-09-25T23:11:10.030Z,14.50
2022-09-25T23:13:37.345Z,13.80
2022-09-25T23:16:06.439Z,14.32
2022-09-25T23:18:34.543Z,15.38
2022-09-25T23:21:01.840Z,15.13
2022-09-25T23:23:28.922Z,15.00
2022-09-25T23:25:56.089Z,15.75
2022-09-25T23:28:23.213Z,14.45
2022-09-25T23:30:50.319Z,15.52
2022-09-25T23:33:17.458Z,14.68
2022-09-25T23:35:44.505Z,15.27
2022-09-25T23:38:11.630Z,13.40
2022-09-25T23:40:38.858Z,14.25
2022-09-25T23:43:06.006Z,14.35
2022-09-25T23:45:33.152Z,15.10
2022-09-25T23:48:00.274Z,13.75
2022-09-25T23:50:27.331Z,14.15
2022-09-25T23:52:54.471Z,13.35
2022-09-25T23:55:21.527Z,14.27
2022-09-25T23:57:48.581Z,14.15
